createdAt,value
2023-02-12T00:01:27.380Z,100462.62
2023-02-12T00:03:55.898Z,100467.25
2023-02-12T00:06:24.143Z,100463.28
2023-02-12T00:08:53.777Z,100465.22
2023-02-12T00:11:24.909Z,100481.06
2023-02-12T00:13:53.864Z,100477.94
2023-02-12T00:16:25.347Z,100469.22
2023-02-12T00:18:55.119Z,100466.63
2023-02-12T00:21:24.487Z,100471.00
2023-02-12T00:23:52.641Z,100481.44
2023-02-12T00:26:21.968Z,100490.19
2023-02-12T00:28:51.536Z,100488.59
2023-02-12T00:31:26.349Z,100491.44
2023-02-12T00:33:58.342Z,100500.06
2023-02-12T00:36:28.165Z,100505.47
2023-02-12T00:38:56.846Z,100507.72
2023-02-12T00:41:26.418Z,100516.81
2023-02-12T00:43:54.697Z,100499.94
2023-02-12T00:46:23.460Z,100504.97
2023-02-12T00:48:51.599Z,100488.97
2023-02-12T00:51:21.036Z,100487.47
2023-02-12T00:53:49.562Z,100462.19
2023-02-12T00:56:17.698Z,100461.50
2023-02-12T00:58:46.415Z,100460.53
2023-02-12T01:01:15.216Z,100452.38
2023-02-12T01:03:43.277Z,100451.72
2023-02-12T01:06:11.375Z,100468.16
2023-02-12T01:08:40.267Z,100467.25
2023-02-12T01:11:08.393Z,100462.78
2023-02-12T01:13:36.514Z,100470.59
2023-02-12T01:16:15.007Z,100485.69
2023-02-12T01:18:43.163Z,100478.38
2023-02-12T01:21:15.940Z,100477.59
2023-02-12T01:23:45.869Z,100473.31
2023-02-12T01:26:15.969Z,100452.47
2023-02-12T01:28:45.389Z,100440.09
2023-02-12T01:31:15.947Z,100425.75
2023-02-12T01:33:44.994Z,100429.03
2023-02-12T01:36:13.202Z,100428.06
2023-02-12T01:38:41.539Z,100422.66
2023-02-12T01:41:13.041Z,100435.38
2023-02-12T01:43:41.725Z,100433.91
2023-02-12T01:46:13.502Z,100445.88
2023-02-12T01:48:47.251Z,100442.47
2023-02-12T01:51:20.734Z,100436.16
2023-02-12T01:53:53.031Z,100418.03
2023-02-12T01:56:22.055Z,100418.72
2023-02-12T01:58:51.992Z,100400.50
2023-02-12T02:01:23.500Z,100389.59
2023-02-12T02:03:56.568Z,100402.56
2023-02-12T02:06:32.489Z,100404.28
2023-02-12T02:09:03.002Z,100403.88
2023-02-12T02:11:50.618Z,100416.13
2023-02-12T02:14:34.776Z,100418.31
2023-02-12T02:17:40.969Z,100412.12
2023-02-12T02:20:23.157Z,100416.06
2023-02-12T02:23:03.678Z,100415.56
2023-02-12T02:26:05.588Z,100402.13
2023-02-12T02:28:54.540Z,100420.16
2023-02-12T02:31:41.923Z,100427.37
2023-02-12T02:34:20.337Z,100427.00
2023-02-12T02:37:17.900Z,100430.16
2023-02-12T02:39:57.073Z,100427.94
2023-02-12T02:42:33.742Z,100444.84
2023-02-12T02:45:12.064Z,100435.66
2023-02-12T02:47:43.509Z,100459.69
2023-02-12T02:50:18.206Z,100462.59
2023-02-12T02:53:11.046Z,100472.78
2023-02-12T02:55:45.375Z,100475.78
2023-02-12T02:58:18.850Z,100474.87
2023-02-12T03:00:54.026Z,100479.06
2023-02-12T03:03:31.194Z,100476.78
2023-02-12T03:06:04.329Z,100487.00
2023-02-12T03:08:38.196Z,100482.34
2023-02-12T03:11:22.656Z,100491.13
2023-02-12T03:13:58.520Z,100489.59
2023-02-12T03:16:32.649Z,100500.50
2023-02-12T03:19:06.304Z,100506.97
2023-02-12T03:22:04.839Z,100506.59
2023-02-12T03:24:37.696Z,100507.56
2023-02-12T03:27:14.189Z,100517.66
2023-02-12T03:29:42.328Z,100531.87
2023-02-12T03:32:16.985Z,100544.88
2023-02-12T03:35:09.352Z,100546.44
2023-02-12T03:37:43.882Z,100553.78
2023-02-12T03:40:18.660Z,100551.72
2023-02-12T03:43:02.303Z,100555.69
2023-02-12T03:45:56.743Z,100558.69
2023-02-12T03:48:34.410Z,100553.62
2023-02-12T03:51:14.686Z,100555.37
2023-02-12T03:53:44.489Z,100562.47
2023-02-12T03:56:16.516Z,100563.28
2023-02-12T03:58:46.248Z,100573.06
2023-02-12T04:01:14.847Z,100569.31
2023-02-12T04:03:44.380Z,100579.13
2023-02-12T04:06:27.523Z,100580.63
2023-02-12T04:08:58.593Z,100584.69
2023-02-12T04:11:31.928Z,100593.00
2023-02-12T04:14:14.439Z,100602.41
2023-02-12T04:16:56.951Z,100609.50
2023-02-12T04:19:34.638Z,100611.41
2023-02-12T04:22:23.985Z,100611.75
2023-02-12T04:25:17.183Z,100614.25
2023-02-12T04:27:57.614Z,100618.09
2023-02-12T04:30:35.906Z,100622.72
2023-02-12T04:33:05.506Z,100631.97
2023-02-12T04:35:49.682Z,100631.16
2023-02-12T04:38:28.630Z,100631.28
2023-02-12T04:40:57.319Z,100629.59
2023-02-12T04:43:36.572Z,100634.81
2023-02-12T04:46:06.886Z,100638.31
2023-02-12T04:48:37.678Z,100641.25
2023-02-12T04:51:06.161Z,100636.72
2023-02-12T04:53:34.288Z,100645.94
2023-02-12T04:56:02.445Z,100654.53
2023-02-12T04:58:30.951Z,100648.16
2023-02-12T05:01:00.115Z,100661.66
2023-02-12T05:03:28.259Z,100659.78
2023-02-12T05:05:57.053Z,100659.06
2023-02-12T05:08:25.405Z,100671.09
2023-02-12T05:10:53.604Z,100667.34
2023-02-12T05:13:22.330Z,100661.53
2023-02-12T05:15:50.543Z,100669.34
2023-02-12T05:18:18.889Z,100676.31
2023-02-12T05:20:56.199Z,100685.84
2023-02-12T05:23:30.010Z,100675.62
2023-02-12T05:25:59.609Z,100679.53
2023-02-12T05:28:28.513Z,100685.00
2023-02-12T05:31:01.116Z,100695.75
2023-02-12T05:33:30.240Z,100712.50
2023-02-12T05:36:06.168Z,100708.81
2023-02-12T05:38:35.099Z,100705.81
2023-02-12T05:41:11.995Z,100705.81
2023-02-12T05:43:40.790Z,100713.09
2023-02-12T05:46:09.686Z,100713.56
2023-02-12T05:48:38.765Z,100716.13
2023-02-12T05:51:10.615Z,100716.69
2023-02-12T05:53:40.197Z,100722.44
2023-02-12T05:56:10.958Z,100731.06
2023-02-12T05:58:40.730Z,100728.31
2023-02-12T06:01:11.714Z,100731.91
2023-02-12T06:03:40.435Z,100744.28
2023-02-12T06:06:09.066Z,100736.00
2023-02-12T06:08:37.811Z,100742.34
2023-02-12T06:11:09.158Z,100755.78
2023-02-12T06:13:37.353Z,100748.31
2023-02-12T06:16:06.147Z,100746.00
2023-02-12T06:18:37.934Z,100759.59
2023-02-12T06:21:06.361Z,100757.16
2023-02-12T06:23:34.804Z,100759.66
2023-02-12T06:26:02.951Z,100762.84
2023-02-12T06:28:31.072Z,100768.84
2023-02-12T06:30:59.555Z,100768.47
2023-02-12T06:33:27.748Z,100766.03
2023-02-12T06:35:56.287Z,100765.19
2023-02-12T06:38:24.976Z,100770.97
2023-02-12T06:40:53.121Z,100782.69
2023-02-12T06:43:21.288Z,100778.44
2023-02-12T06:45:49.800Z,100756.78
2023-02-12T06:48:17.870Z,100769.78
2023-02-12T06:50:45.980Z,100769.91
2023-02-12T06:53:14.437Z,100772.53
2023-02-12T06:55:42.680Z,100779.66
2023-02-12T06:58:10.735Z,100787.41
2023-02-12T07:00:39.500Z,100783.94
2023-02-12T07:03:07.703Z,100792.94
2023-02-12T07:05:38.158Z,100785.19
2023-02-12T07:08:06.731Z,100790.44
2023-02-12T07:10:34.900Z,100795.09
2023-02-12T07:13:04.121Z,100802.91
2023-02-12T07:15:32.678Z,100810.63
2023-02-12T07:18:00.727Z,100817.72
2023-02-12T07:20:28.832Z,100828.69
2023-02-12T07:22:57.349Z,100822.09
2023-02-12T07:25:25.548Z,100832.75
2023-02-12T07:27:53.723Z,100839.88
2023-02-12T07:30:22.287Z,100836.38
2023-02-12T07:32:50.462Z,100841.16
2023-02-12T07:35:18.491Z,100845.84
2023-02-12T07:37:47.103Z,100852.91
2023-02-12T07:40:15.290Z,100853.22
2023-02-12T07:42:43.337Z,100856.88
2023-02-12T07:45:11.974Z,100851.06
2023-02-12T07:47:40.898Z,100862.47
2023-02-12T07:50:09.533Z,100853.38
2023-02-12T07:52:37.987Z,100858.41
2023-02-12T07:55:06.590Z,100860.69
2023-02-12T07:57:37.585Z,100863.91
2023-02-12T08:00:06.713Z,100861.63
2023-02-12T08:02:40.116Z,100858.56
2023-02-12T08:05:08.764Z,100869.59
2023-02-12T08:07:36.944Z,100861.50
2023-02-12T08:10:05.738Z,100861.22
2023-02-12T08:12:34.464Z,100865.69
2023-02-12T08:15:02.521Z,100858.53
2023-02-12T08:17:31.830Z,100859.88
2023-02-12T08:20:00.305Z,100868.81
2023-02-12T08:22:28.361Z,100872.28
2023-02-12T08:24:56.482Z,100883.25
2023-02-12T08:27:24.870Z,100882.00
2023-02-12T08:29:52.961Z,100879.66
2023-02-12T08:32:21.023Z,100888.22
2023-02-12T08:34:49.520Z,100891.03
2023-02-12T08:37:17.796Z,100894.63
2023-02-12T08:39:45.932Z,100890.87
2023-02-12T08:42:14.410Z,100900.50
2023-02-12T08:44:43.404Z,100903.75
2023-02-12T08:47:11.559Z,100903.00
2023-02-12T08:49:40.088Z,100914.94
2023-02-12T08:52:08.264Z,100906.81
2023-02-12T08:54:36.446Z,100906.41
2023-02-12T08:57:05.041Z,100910.91
2023-02-12T08:59:33.196Z,100914.41
2023-02-12T09:02:02.185Z,100918.03
2023-02-12T09:04:30.869Z,100918.25
2023-02-12T09:06:59.133Z,100927.09
2023-02-12T09:09:27.446Z,100933.34
2023-02-12T09:11:56.067Z,100928.87
2023-02-12T09:14:25.042Z,100941.28
2023-02-12T09:16:54.425Z,100937.91
2023-02-12T09:19:23.717Z,100940.53
2023-02-12T09:21:55.725Z,100951.87
2023-02-12T09:24:26.331Z,100952.75
2023-02-12T09:26:54.500Z,100961.47
2023-02-12T09:29:22.784Z,100950.97
2023-02-12T09:31:51.450Z,100955.03
2023-02-12T09:34:19.689Z,100957.03
2023-02-12T09:36:47.898Z,100957.66
2023-02-12T09:39:16.528Z,100953.25
2023-02-12T09:42:03.050Z,100950.62
2023-02-12T09:44:38.139Z,100955.37
2023-02-12T09:47:24.244Z,100954.75
2023-02-12T09:50:11.597Z,100956.72
2023-02-12T09:52:39.762Z,100958.69
2023-02-12T09:55:13.980Z,100956.44
2023-02-12T09:57:42.754Z,100964.25
2023-02-12T10:00:11.625Z,100962.75
2023-02-12T10:02:40.951Z,100964.09
2023-02-12T10:05:18.443Z,100976.13
2023-02-12T10:08:03.592Z,100973.00
2023-02-12T10:11:01.116Z,100962.87
2023-02-12T10:14:03.464Z,100980.19
2023-02-12T10:16:49.904Z,100985.38
2023-02-12T10:19:24.372Z,100977.28
2023-02-12T10:22:00.450Z,100985.84
2023-02-12T10:24:42.142Z,100997.31
2023-02-12T10:27:15.145Z,100990.97
2023-02-12T10:29:45.896Z,100997.41
2023-02-12T10:32:26.686Z,100993.37
2023-02-12T10:34:57.191Z,100999.16
2023-02-12T10:37:44.599Z,100995.47
2023-02-12T10:40:19.020Z,100997.03
2023-02-12T10:42:50.262Z,100992.44
2023-02-12T10:45:25.983Z,100986.78
2023-02-12T10:48:05.433Z,100987.69
2023-02-12T10:50:45.898Z,100990.03
2023-02-12T10:53:21.269Z,100983.03
2023-02-12T10:55:50.163Z,100981.94
2023-02-12T10:58:24.547Z,100989.34
2023-02-12T11:01:00.419Z,100998.69
2023-02-12T11:03:38.434Z,100993.94
2023-02-12T11:06:18.625Z,100985.19
2023-02-12T11:08:46.878Z,100987.53
2023-02-12T11:11:20.159Z,100987.56
2023-02-12T11:14:18.160Z,100984.53
2023-02-12T11:16:57.696Z,100990.69
2023-02-12T11:19:28.189Z,100999.09
2023-02-12T11:22:19.131Z,100989.34
2023-02-12T11:24:47.536Z,100989.66
2023-02-12T11:27:15.938Z,100992.56
2023-02-12T11:29:46.395Z,100990.44
2023-02-12T11:32:17.995Z,100990.50
2023-02-12T11:35:15.497Z,100991.53
2023-02-12T11:37:45.086Z,100993.78
2023-02-12T11:40:20.714Z,100993.78
2023-02-12T11:42:58.019Z,100992.78
2023-02-12T11:45:37.417Z,100988.53
2023-02-12T11:48:18.384Z,100988.41
2023-02-12T11:50:51.773Z,100987.56
2023-02-12T11:53:29.720Z,100989.22
2023-02-12T11:56:01.583Z,100987.34
2023-02-12T11:58:30.612Z,100993.41
2023-02-12T12:01:02.589Z,100992.81
2023-02-12T12:03:44.629Z,100980.72
2023-02-12T12:06:47.556Z,100992.00
2023-02-12T12:09:29.522Z,100988.56
2023-02-12T12:12:09.246Z,100986.75
2023-02-12T12:15:09.005Z,100985.75
2023-02-12T12:18:12.045Z,100989.16
2023-02-12T12:21:19.675Z,100977.66
2023-02-12T12:23:54.368Z,100971.88
2023-02-12T12:26:26.858Z,100978.28
2023-02-12T12:29:17.096Z,100973.47
2023-02-12T12:31:48.467Z,100970.31
2023-02-12T12:34:23.089Z,100974.75
2023-02-12T12:37:15.335Z,100964.16
2023-02-12T12:40:03.574Z,100966.31
2023-02-12T12:42:52.864Z,100964.56
2023-02-12T12:45:30.058Z,100969.88
2023-02-12T12:48:04.416Z,100968.09
2023-02-12T12:51:05.069Z,100967.25
2023-02-12T12:53:54.855Z,100970.91
2023-02-12T12:56:47.651Z,100959.66
2023-02-12T12:59:53.436Z,100966.09
2023-02-12T13:02:27.780Z,100964.97
2023-02-12T13:05:20.356Z,100963.31
2023-02-12T13:07:57.915Z,100960.78
2023-02-12T13:10:35.368Z,100966.66
2023-02-12T13:13:18.644Z,100969.25
2023-02-12T13:15:59.241Z,100965.63
2023-02-12T13:18:42.021Z,100960.34
2023-02-12T13:21:27.438Z,100957.03
2023-02-12T13:24:01.359Z,100965.87
2023-02-12T13:26:49.948Z,100963.28
2023-02-12T13:29:23.080Z,100954.97
2023-02-12T13:31:55.899Z,100965.25
2023-02-12T13:34:28.845Z,100962.56
2023-02-12T13:36:57.886Z,100963.50
2023-02-12T13:39:32.210Z,100959.63
2023-02-12T13:42:01.539Z,100960.25
2023-02-12T13:44:56.099Z,100966.88
2023-02-12T13:48:01.174Z,100968.66
2023-02-12T13:50:39.919Z,100972.25
2023-02-12T13:53:14.589Z,100974.00
2023-02-12T13:55:51.188Z,100977.31
2023-02-12T13:58:40.385Z,100977.13
2023-02-12T14:01:11.819Z,100985.06
2023-02-12T14:03:40.687Z,100992.22
2023-02-12T14:06:10.285Z,100988.59
2023-02-12T14:08:45.108Z,100993.25
2023-02-12T14:11:16.646Z,100989.66
2023-02-12T14:14:04.455Z,100983.03
2023-02-12T14:16:32.846Z,100988.94
2023-02-12T14:19:38.830Z,100988.81
2023-02-12T14:22:12.264Z,100996.25
2023-02-12T14:24:53.191Z,100987.34
2023-02-12T14:27:24.585Z,100991.25
2023-02-12T14:30:07.956Z,100992.34
2023-02-12T14:32:45.624Z,100992.56
2023-02-12T14:35:35.394Z,100993.25
2023-02-12T14:38:32.184Z,100999.56
2023-02-12T14:41:34.402Z,101002.47
2023-02-12T14:44:30.914Z,101006.75
2023-02-12T14:47:05.372Z,101009.16
2023-02-12T14:49:47.707Z,101018.97
2023-02-12T14:52:19.413Z,101007.00
2023-02-12T14:54:47.815Z,101014.31
2023-02-12T14:57:32.168Z,101019.59
2023-02-12T15:00:12.652Z,101016.69
2023-02-12T15:02:41.572Z,101018.56
2023-02-12T15:05:27.265Z,101019.72
2023-02-12T15:08:03.662Z,101022.81
2023-02-12T15:10:36.474Z,101031.47
2023-02-12T15:13:24.966Z,101022.22
2023-02-12T15:15:56.345Z,101022.06
2023-02-12T15:18:32.102Z,101014.19
2023-02-12T15:21:26.094Z,101019.09
2023-02-12T15:24:07.420Z,101020.28
2023-02-12T15:26:45.756Z,101025.94
2023-02-12T15:29:21.962Z,101025.66
2023-02-12T15:31:58.438Z,101021.84
2023-02-12T15:34:32.641Z,101025.44
2023-02-12T15:37:02.555Z,101027.59
2023-02-12T15:39:43.831Z,101026.31
2023-02-12T15:42:29.077Z,101031.47
2023-02-12T15:45:15.586Z,101025.06
2023-02-12T15:47:45.168Z,101022.59
2023-02-12T15:50:15.117Z,101033.69
2023-02-12T15:52:45.423Z,101033.87
2023-02-12T15:55:17.610Z,101045.59
2023-02-12T15:58:00.161Z,101045.75
2023-02-12T16:00:44.264Z,101050.09
2023-02-12T16:03:40.729Z,101042.12
2023-02-12T16:06:17.015Z,101058.91
2023-02-12T16:08:58.942Z,101062.22
2023-02-12T16:11:28.771Z,101066.91
2023-02-12T16:14:00.442Z,101066.97
2023-02-12T16:16:49.885Z,101069.94
2023-02-12T16:19:21.330Z,101069.66
2023-02-12T16:22:11.112Z,101082.66
2023-02-12T16:24:44.640Z,101085.66
2023-02-12T16:27:15.744Z,101084.56
2023-02-12T16:29:53.504Z,101093.25
2023-02-12T16:32:42.365Z,101089.91
2023-02-12T16:35:10.697Z,101083.19
2023-02-12T16:37:38.701Z,101091.94
2023-02-12T16:40:21.607Z,101093.16
2023-02-12T16:42:49.817Z,101092.00
2023-02-12T16:45:37.664Z,101098.13
2023-02-12T16:48:09.044Z,101103.22
2023-02-12T16:50:39.829Z,101115.03
2023-02-12T16:53:24.196Z,101118.97
2023-02-12T16:55:53.561Z,101119.50
2023-02-12T16:58:21.925Z,101120.31
2023-02-12T17:00:50.026Z,101120.66
2023-02-12T17:03:18.171Z,101133.31
2023-02-12T17:05:46.734Z,101133.47
2023-02-12T17:08:17.741Z,101132.84
2023-02-12T17:10:45.838Z,101140.62
2023-02-12T17:13:14.703Z,101141.81
2023-02-12T17:15:55.577Z,101150.06
2023-02-12T17:18:24.860Z,101152.56
2023-02-12T17:20:58.630Z,101158.41
2023-02-12T17:23:27.137Z,101155.59
2023-02-12T17:25:55.603Z,101150.34
2023-02-12T17:28:25.342Z,101151.47
2023-02-12T17:30:54.473Z,101154.16
2023-02-12T17:33:23.014Z,101151.75
2023-02-12T17:35:51.057Z,101151.78
2023-02-12T17:38:19.522Z,101154.44
2023-02-12T17:40:47.448Z,101147.25
2023-02-12T17:43:15.461Z,101144.16
2023-02-12T17:45:44.213Z,101145.94
2023-02-12T17:48:13.718Z,101145.87
2023-02-12T17:50:42.237Z,101146.97
2023-02-12T17:53:10.971Z,101152.72
2023-02-12T17:55:40.333Z,101165.69
2023-02-12T17:58:08.849Z,101166.88
2023-02-12T18:00:37.128Z,101169.84
2023-02-12T18:03:05.498Z,101179.91
2023-02-12T18:05:33.526Z,101176.31
2023-02-12T18:08:03.764Z,101182.56
2023-02-12T18:10:32.119Z,101176.41
2023-02-12T18:13:00.165Z,101170.66
2023-02-12T18:15:28.136Z,101179.50
2023-02-12T18:17:56.499Z,101179.84
2023-02-12T18:20:24.566Z,101176.84
2023-02-12T18:22:52.688Z,101180.72
2023-02-12T18:25:21.066Z,101173.31
2023-02-12T18:27:49.029Z,101170.97
2023-02-12T18:30:17.449Z,101175.56
2023-02-12T18:32:45.759Z,101174.69
2023-02-12T18:35:14.917Z,101176.69
2023-02-12T18:37:43.550Z,101181.22
2023-02-12T18:40:12.431Z,101172.81
2023-02-12T18:42:40.566Z,101184.56
2023-02-12T18:45:08.957Z,101182.91
2023-02-12T18:47:37.374Z,101184.72
2023-02-12T18:50:06.415Z,101181.34
2023-02-12T18:52:34.561Z,101180.47
2023-02-12T18:55:02.950Z,101185.75
2023-02-12T18:57:31.364Z,101185.53
2023-02-12T18:59:59.454Z,101180.53
2023-02-12T19:02:27.972Z,101184.03
2023-02-12T19:04:56.110Z,101191.41
2023-02-12T19:07:24.164Z,101181.91
2023-02-12T19:09:52.952Z,101185.63
2023-02-12T19:12:20.936Z,101188.25
2023-02-12T19:14:48.888Z,101190.53
2023-02-12T19:17:17.291Z,101188.00
2023-02-12T19:19:45.362Z,101191.22
2023-02-12T19:22:13.360Z,101197.34
2023-02-12T19:24:46.895Z,101190.94
2023-02-12T19:27:15.479Z,101190.28
2023-02-12T19:29:44.244Z,101184.22
2023-02-12T19:32:12.522Z,101193.22
2023-02-12T19:34:40.734Z,101190.53
2023-02-12T19:37:11.016Z,101192.81
2023-02-12T19:39:40.031Z,101192.97
2023-02-12T19:42:08.485Z,101192.91
2023-02-12T19:44:36.678Z,101198.06
2023-02-12T19:47:04.815Z,101202.84
2023-02-12T19:49:33.369Z,101194.91
2023-02-12T19:52:01.438Z,101204.91
2023-02-12T19:54:29.518Z,101201.91
2023-02-12T19:56:57.996Z,101211.28
2023-02-12T19:59:27.198Z,101197.81
2023-02-12T20:01:56.701Z,101211.38
2023-02-12T20:04:25.362Z,101203.28
2023-02-12T20:06:53.783Z,101199.69
2023-02-12T20:09:22.790Z,101208.03
2023-02-12T20:11:51.329Z,101206.91
2023-02-12T20:14:21.124Z,101215.41
2023-02-12T20:16:50.607Z,101218.88
2023-02-12T20:19:25.233Z,101218.06
2023-02-12T20:21:55.962Z,101215.12
2023-02-12T20:24:26.954Z,101211.72
2023-02-12T20:26:55.733Z,101216.25
2023-02-12T20:29:24.046Z,101209.78
2023-02-12T20:31:52.768Z,101220.19
2023-02-12T20:34:20.893Z,101226.69
2023-02-12T20:36:49.101Z,101219.72
2023-02-12T20:39:19.693Z,101224.13
2023-02-12T20:41:48.396Z,101230.91
2023-02-12T20:44:20.213Z,101230.03
2023-02-12T20:46:50.931Z,101238.44
2023-02-12T20:49:22.608Z,101228.84
2023-02-12T20:51:51.366Z,101236.41
2023-02-12T20:54:19.413Z,101238.06
2023-02-12T20:56:50.872Z,101250.06
2023-02-12T20:59:20.630Z,101249.38
2023-02-12T21:01:48.916Z,101263.25
2023-02-12T21:04:18.303Z,101268.84
2023-02-12T21:06:48.704Z,101262.47
2023-02-12T21:09:17.773Z,101272.19
2023-02-12T21:11:46.507Z,101273.41
2023-02-12T21:14:24.184Z,101266.19
2023-02-12T21:16:54.491Z,101268.69
2023-02-12T21:19:23.632Z,101269.38
2023-02-12T21:21:51.704Z,101271.25
2023-02-12T21:24:22.502Z,101257.28
2023-02-12T21:26:51.954Z,101255.28
2023-02-12T21:29:20.529Z,101258.50
2023-02-12T21:31:49.954Z,101258.88
2023-02-12T21:34:21.380Z,101257.19
2023-02-12T21:36:50.478Z,101255.72
2023-02-12T21:39:25.446Z,101254.97
2023-02-12T21:41:55.693Z,101261.13
2023-02-12T21:44:25.275Z,101251.34
2023-02-12T21:46:54.263Z,101260.87
2023-02-12T21:49:26.742Z,101260.87
2023-02-12T21:52:02.320Z,101264.37
2023-02-12T21:54:31.051Z,101271.59
2023-02-12T21:57:00.119Z,101276.66
2023-02-12T21:59:31.740Z,101275.91
2023-02-12T22:02:02.067Z,101279.97
2023-02-12T22:04:30.680Z,101284.19
2023-02-12T22:07:03.391Z,101285.38
2023-02-12T22:09:32.389Z,101291.25
2023-02-12T22:12:00.363Z,101301.37
2023-02-12T22:14:28.477Z,101300.03
2023-02-12T22:16:56.805Z,101299.78
2023-02-12T22:19:25.609Z,101292.62
2023-02-12T22:21:53.791Z,101298.81
2023-02-12T22:24:22.164Z,101300.19
2023-02-12T22:26:50.131Z,101307.81
2023-02-12T22:29:18.273Z,101319.25
2023-02-12T22:31:47.816Z,101314.66
2023-02-12T22:34:19.254Z,101308.81
2023-02-12T22:36:48.001Z,101316.81
2023-02-12T22:39:17.789Z,101316.19
2023-02-12T22:41:46.708Z,101324.75
2023-02-12T22:44:16.158Z,101311.66
2023-02-12T22:46:44.388Z,101310.09
2023-02-12T22:49:12.322Z,101317.63
2023-02-12T22:51:40.908Z,101318.22
2023-02-12T22:54:13.116Z,101311.22
2023-02-12T22:56:41.916Z,101318.84
2023-02-12T22:59:11.321Z,101315.88
2023-02-12T23:01:40.104Z,101317.22
2023-02-12T23:04:16.865Z,101308.81
2023-02-12T23:06:45.255Z,101316.59
2023-02-12T23:09:15.090Z,101315.78
2023-02-12T23:11:43.093Z,101317.84
2023-02-12T23:14:11.984Z,101321.91
2023-02-12T23:16:40.429Z,101323.81
2023-02-12T23:19:10.212Z,101323.41
2023-02-12T23:21:38.288Z,101333.78
2023-02-12T23:24:06.891Z,101318.47
2023-02-12T23:26:36.056Z,101320.75
2023-02-12T23:29:04.062Z,101318.47
2023-02-12T23:31:32.548Z,101324.84
2023-02-12T23:34:00.635Z,101332.91
2023-02-12T23:36:29.279Z,101332.16
2023-02-12T23:38:59.487Z,101326.47
2023-02-12T23:41:27.413Z,101320.56
2023-02-12T23:43:55.465Z,101331.34
2023-02-12T23:46:23.944Z,101327.63
2023-02-12T23:48:51.936Z,101324.72
2023-02-12T23:51:19.921Z,101323.19
2023-02-12T23:53:48.289Z,101318.59
2023-02-12T23:56:16.267Z,101317.53
2023-02-12T23:58:44.388Z,101316.09
